Time;durP1;ratioP1;P1;durP2;ratioP2;P2;SDS_P1;SDS_P2;PMS_P1;PMS_P2;Temp;Humidity;BMP_temperature;BMP_pressure;BME280_temperature;BME280_humidity;BME280_pressure;Samples;Min_cycle;Max_cycle;Signal;HPM_P1;HPM_P2
2022/11/11 00:02:20;;;;;;;20.45;11.63;;;;;;;12.34;100.00;100000.44;6346870;22;20053;-96
2022/11/11 00:04:46;;;;;;;15.77;10.93;;;;;;;12.38;100.00;100031.47;6347325;22;20019;-95
2022/11/11 00:07:11;;;;;;;20.30;11.60;;;;;;;12.26;100.00;100008.53;6345764;22;20022;-95
2022/11/11 00:09:37;;;;;;;17.42;11.20;;;;;;;12.26;100.00;100010.31;6343663;22;20089;-94
2022/11/11 00:12:04;;;;;;;21.08;12.23;;;;;;;12.24;100.00;100014.81;6346129;22;20015;-95
2022/11/11 00:14:31;;;;;;;21.33;13.15;;;;;;;12.33;100.00;100041.34;6344879;22;20060;-94
2022/11/11 00:26:01;;;;;;;23.83;14.13;;;;;;;11.98;100.00;100007.16;5134566;27;20387;-96
2022/11/11 00:28:26;;;;;;;23.98;14.38;;;;;;;12.09;100.00;100023.88;5135010;27;20100;-96
2022/11/11 00:31:00;;;;;;;26.13;15.40;;;;;;;12.07;100.00;100015.91;5138598;27;20036;-94
2022/11/11 00:33:26;;;;;;;22.85;15.15;;;;;;;12.12;100.00;100023.81;5134987;27;20400;-95
2022/11/11 00:35:52;;;;;;;21.55;13.82;;;;;;;12.10;100.00;100017.63;5134251;27;20039;-95
2022/11/11 00:41:20;;;;;;;21.92;13.85;;;;;;;12.21;100.00;100036.16;5115471;27;20388;-94
2022/11/11 00:43:46;;;;;;;22.63;14.32;;;;;;;12.12;100.00;100024.75;5114958;28;20044;-96
2022/11/11 00:52:13;;;;;;;24.75;14.35;;;;;;;12.03;100.00;100050.63;5135167;27;20694;-96
2022/11/11 00:54:39;;;;;;;23.17;14.35;;;;;;;12.04;100.00;100047.94;5133937;27;20063;-95
2022/11/11 00:57:05;;;;;;;30.02;17.58;;;;;;;12.06;100.00;100064.81;5133808;27;20081;-94
2022/11/11 00:59:31;;;;;;;27.92;15.85;;;;;;;12.04;100.00;100076.41;5133382;27;20134;-94
2022/11/11 01:01:57;;;;;;;31.13;18.42;;;;;;;11.84;100.00;100052.59;5134179;27;20051;-94
2022/11/11 01:04:23;;;;;;;31.77;18.00;;;;;;;11.85;100.00;100070.34;5133650;27;20042;-94
2022/11/11 01:06:48;;;;;;;31.17;18.40;;;;;;;11.82;100.00;100070.38;5134338;27;20047;-95
2022/11/11 01:09:16;;;;;;;32.45;20.00;;;;;;;11.57;100.00;100056.44;5133669;27;20065;-95
2022/11/11 01:11:41;;;;;;;33.50;19.63;;;;;;;11.60;100.00;100072.38;5133681;27;20042;-96
2022/11/11 01:14:07;;;;;;;34.63;19.50;;;;;;;11.46;100.00;100049.44;5134797;27;20075;-94
2022/11/11 01:16:33;;;;;;;34.15;19.75;;;;;;;11.58;100.00;100071.53;5132617;27;20039;-94
2022/11/11 01:18:59;;;;;;;30.98;18.10;;;;;;;11.57;100.00;100057.31;5134260;27;20044;-95
2022/11/11 01:21:25;;;;;;;32.95;18.70;;;;;;;11.51;100.00;100055.63;5134425;27;20071;-96
2022/11/11 01:23:52;;;;;;;34.53;18.75;;;;;;;11.57;100.00;100069.78;5134056;27;20115;-95
2022/11/11 01:26:23;;;;;;;32.30;18.88;;;;;;;11.58;100.00;100088.41;5132967;27;20134;-96
2022/11/11 01:28:49;;;;;;;31.50;17.48;;;;;;;11.50;100.00;100061.84;5134068;27;20138;-94
2022/11/11 01:31:17;;;;;;;26.38;16.45;;;;;;;11.56;100.00;100060.00;5133110;27;20067;-95
2022/11/11 01:33:43;;;;;;;30.40;17.85;;;;;;;11.73;100.00;100066.03;5133093;27;20388;-95
2022/11/11 01:36:11;;;;;;;25.92;15.52;;;;;;;11.81;100.00;100073.94;5134402;27;20047;-94
2022/11/11 01:38:38;;;;;;;26.60;14.73;;;;;;;11.76;100.00;100046.47;5132959;27;20039;-96
2022/11/11 01:41:31;;;;;;;23.50;14.35;;;;;;;11.88;100.00;100044.59;5133310;27;20044;-94
2022/11/11 01:43:53;;;;;;;22.90;13.02;;;;;;;12.03;100.00;100037.28;5132074;28;20043;-92
2022/11/11 01:46:30;;;;;;;22.00;12.23;;;;;;;12.11;100.00;100036.28;5132438;27;20047;-94
2022/11/11 01:52:08;;;;;;;21.80;12.27;;;;;;;12.07;100.00;100033.69;5110060;27;20371;-95
2022/11/11 01:54:39;;;;;;;21.23;11.88;;;;;;;12.08;100.00;100039.00;5093153;28;20083;-96
2022/11/11 01:57:10;;;;;;;19.83;12.18;;;;;;;12.08;100.00;100033.69;5094396;28;20481;-96
2022/11/11 01:59:42;;;;;;;23.27;12.13;;;;;;;12.06;100.00;100031.94;5093363;28;20131;-94
2022/11/11 02:02:17;;;;;;;21.27;12.50;;;;;;;11.97;100.00;100024.94;5092751;28;20490;-95
2022/11/11 02:07:45;;;;;;;23.05;13.60;;;;;;;11.97;100.00;100024.03;5133657;27;20729;-95
2022/11/11 02:10:11;;;;;;;21.52;13.18;;;;;;;11.84;100.00;100005.50;5133680;28;20054;-95
2022/11/11 02:15:39;;;;;;;24.52;15.23;;;;;;;12.00;100.00;100026.69;5093370;27;20378;-92
2022/11/11 02:18:05;;;;;;;28.35;15.73;;;;;;;11.93;100.00;100025.88;5093197;28;20049;-94
2022/11/11 02:20:36;;;;;;;25.55;13.40;;;;;;;11.85;100.00;100001.06;5093422;28;20484;-95
2022/11/11 02:23:07;;;;;;;24.58;15.35;;;;;;;11.97;100.00;100005.38;5093281;28;20151;-94
2022/11/11 02:25:37;;;;;;;26.90;16.38;;;;;;;12.18;100.00;100030.88;5093023;28;20051;-92
2022/11/11 02:28:06;;;;;;;24.92;15.27;;;;;;;12.18;100.00;100021.09;5091325;28;20036;-92
2022/11/11 02:30:32;;;;;;;22.73;13.37;;;;;;;12.15;100.00;100037.13;5092816;28;20090;-93
2022/11/11 02:32:58;;;;;;;25.48;14.18;;;;;;;11.99;100.00;100023.13;5092333;28;20296;-94
2022/11/11 02:35:30;;;;;;;23.85;13.70;;;;;;;12.04;100.00;100015.94;5093010;28;20047;-95
2022/11/11 02:37:56;;;;;;;23.02;13.18;;;;;;;12.10;100.00;100028.31;5093939;28;20515;-94
2022/11/11 02:40:27;;;;;;;24.88;14.50;;;;;;;11.94;100.00;100018.75;5093941;28;20050;-94
2022/11/11 02:42:54;;;;;;;23.00;14.18;;;;;;;12.08;100.00;100059.47;5093039;28;20048;-94
2022/11/11 02:45:21;;;;;;;26.38;13.82;;;;;;;11.89;100.00;100032.16;5094057;28;20051;-96
2022/11/11 02:47:46;;;;;;;25.40;14.82;;;;;;;11.96;100.00;100063.16;5095991;28;20046;-94
2022/11/11 02:50:13;;;;;;;27.38;14.00;;;;;;;11.79;100.00;100047.31;5094725;28;20048;-95
2022/11/11 02:52:38;;;;;;;27.50;15.05;;;;;;;11.83;100.00;100056.16;5094733;28;20048;-95
2022/11/11 02:55:06;;;;;;;28.17;15.10;;;;;;;11.68;100.00;100039.44;5094439;28;20040;-95
2022/11/11 02:57:32;;;;;;;24.35;14.07;;;;;;;11.62;100.00;100036.84;5094261;28;20502;-94
2022/11/11 03:00:01;;;;;;;26.90;15.35;;;;;;;11.69;100.00;100057.22;5093295;28;20052;-96
2022/11/11 03:02:28;;;;;;;25.63;14.20;;;;;;;11.65;100.00;100047.47;5095833;28;20045;-96
2022/11/11 03:04:54;;;;;;;24.88;13.77;;;;;;;11.63;100.00;100045.75;5093327;28;20127;-94
2022/11/11 03:07:20;;;;;;;27.20;15.23;;;;;;;11.69;100.00;100059.88;5093093;28;20045;-96
2022/11/11 03:09:46;;;;;;;25.92;14.40;;;;;;;11.64;100.00;100056.34;5093960;28;20044;-94
2022/11/11 03:12:12;;;;;;;25.35;15.38;;;;;;;11.63;100.00;100053.72;5091947;28;20048;-93
2022/11/11 03:14:38;;;;;;;26.75;15.38;;;;;;;11.61;100.00;100053.72;5091192;28;20045;-94
2022/11/11 03:23:22;;;;;;;26.58;14.63;;;;;;;11.54;100.00;100051.13;5157919;27;20378;-96
2022/11/11 03:25:48;;;;;;;26.92;15.50;;;;;;;11.48;100.00;100050.31;5156453;27;20110;-95
2022/11/11 03:28:15;;;;;;;26.88;14.77;;;;;;;11.51;100.00;100044.97;5157389;27;20074;-95
2022/11/11 03:30:43;;;;;;;24.88;14.18;;;;;;;11.49;100.00;100051.19;5157549;27;20038;-95
2022/11/11 03:33:09;;;;;;;27.75;15.93;;;;;;;11.56;100.00;100058.25;5156129;27;20099;-93
2022/11/11 03:35:35;;;;;;;25.02;13.63;;;;;;;11.49;100.00;100048.53;5159739;27;20043;-96
2022/11/11 03:41:03;;;;;;;26.80;14.18;;;;;;;11.59;100.00;100063.53;5153194;27;20374;-94
2022/11/11 03:43:31;;;;;;;23.73;13.93;;;;;;;11.55;100.00;100050.25;5136166;28;20043;-95
2022/11/11 03:45:58;;;;;;;24.15;14.20;;;;;;;11.68;100.00;100074.06;5138452;28;20119;-96
2022/11/11 03:48:25;;;;;;;22.55;12.70;;;;;;;11.54;100.00;100045.81;5138967;28;20496;-95
2022/11/11 03:50:51;;;;;;;24.02;13.13;;;;;;;11.51;100.00;100050.31;5136815;28;20040;-96
2022/11/11 03:53:19;;;;;;;26.00;12.98;;;;;;;11.59;100.00;100052.00;5137471;28;20404;-96
2022/11/11 03:55:45;;;;;;;23.20;13.32;;;;;;;11.74;100.00;100050.94;5135176;28;20516;-95
2022/11/11 03:58:12;;;;;;;25.05;13.40;;;;;;;11.72;100.00;100049.16;5135336;28;20076;-95
2022/11/11 04:00:38;;;;;;;23.83;12.82;;;;;;;11.69;100.00;100051.88;5133519;28;20043;-95
2022/11/11 04:12:09;;;;;;;24.80;13.52;;;;;;;11.72;100.00;100082.94;5134765;27;20375;-96
2022/11/11 04:17:44;;;;;;;24.73;14.13;;;;;;;11.58;100.00;100066.19;5198295;27;20385;-96
2022/11/11 04:23:10;;;;;;;23.48;13.25;;;;;;;11.66;100.00;100081.19;5112021;27;20390;-96
2022/11/11 04:32:34;;;;;;;24.92;14.38;;;;;;;11.25;100.00;100078.94;5117304;27;20381;-95
2022/11/11 04:34:23;;;;;;;26.38;15.45;;;;;;;11.18;100.00;100080.78;5116224;28;20051;-95
2022/11/11 04:36:53;;;;;;;27.85;15.52;;;;;;;11.24;100.00;100099.38;5115494;28;20044;-96
2022/11/11 04:42:21;;;;;;;29.17;15.90;;;;;;;11.04;100.00;100085.34;5098632;27;20855;-95
2022/11/11 04:47:59;;;;;;;29.75;14.65;;;;;;;11.14;100.00;100092.34;5158851;27;20385;-96
2022/11/11 04:50:27;;;;;;;29.30;15.10;;;;;;;11.17;100.00;100092.34;5157624;27;20042;-96
2022/11/11 04:52:53;;;;;;;27.30;15.57;;;;;;;11.11;100.00;100087.06;5157414;27;20052;-94
2022/11/11 04:58:21;;;;;;;29.08;15.77;;;;;;;11.26;100.00;100097.56;5102786;27;20386;-94
2022/11/11 05:00:47;;;;;;;24.60;14.82;;;;;;;11.38;100.00;100106.34;5098541;28;20130;-95
2022/11/11 05:03:14;;;;;;;25.40;14.20;;;;;;;11.43;100.00;100104.56;5101331;28;20108;-94
2022/11/11 05:08:57;;;;;;;29.85;15.35;;;;;;;11.42;100.00;100102.75;5201672;27;20117;-95
2022/11/11 05:11:25;;;;;;;28.83;17.23;;;;;;;11.50;100.00;100123.09;5197400;27;20187;-95
2022/11/11 05:22:55;;;;;;;33.22;16.60;;;;;;;11.60;100.00;100099.94;5095337;27;20370;-93
2022/11/11 05:25:24;;;;;;;36.03;18.70;;;;;;;11.59;100.00;100113.28;5095170;28;20051;-93
2022/11/11 05:27:51;;;;;;;37.00;18.83;;;;;;;11.46;100.00;100101.84;5093999;28;20502;-95
2022/11/11 05:30:18;;;;;;;33.70;17.02;;;;;;;11.41;100.00;100096.56;5095165;28;20568;-94
2022/11/11 05:32:44;;;;;;;27.48;15.13;;;;;;;11.47;100.00;100111.59;5094237;28;20127;-94
2022/11/11 05:35:11;;;;;;;26.35;14.85;;;;;;;11.47;100.00;100106.25;5094634;28;20102;-95
2022/11/11 05:37:37;;;;;;;31.38;16.77;;;;;;;11.47;100.00;100116.91;5094081;28;20044;-94
2022/11/11 05:40:06;;;;;;;28.17;16.25;;;;;;;11.37;100.00;100109.94;5093720;28;20401;-93
2022/11/11 05:42:32;;;;;;;31.85;15.82;;;;;;;11.37;100.00;100117.91;5094482;28;20049;-93
2022/11/11 05:44:58;;;;;;;32.65;16.65;;;;;;;11.55;100.00;100146.16;5108114;28;20047;-94
2022/11/11 05:47:25;;;;;;;35.65;17.85;;;;;;;11.34;100.00;100125.91;5110518;28;20444;-94
2022/11/11 05:49:51;;;;;;;32.70;15.70;;;;;;;11.36;100.00;100135.66;5114530;28;20040;-93
2022/11/11 05:52:18;;;;;;;32.05;15.27;;;;;;;11.25;100.00;100114.44;5097709;28;20036;-95
2022/11/11 05:54:44;;;;;;;34.30;17.50;;;;;;;11.25;100.00;100125.09;5094506;28;20052;-95
2022/11/11 05:57:12;;;;;;;31.88;18.25;;;;;;;11.26;100.00;100121.53;5096323;28;20403;-95
2022/11/11 05:59:38;;;;;;;34.13;18.77;;;;;;;11.19;100.00;100119.84;5093530;28;20051;-95
2022/11/11 06:02:04;;;;;;;33.05;18.73;;;;;;;11.31;100.00;100132.16;5094897;28;20044;-94
2022/11/11 06:04:30;;;;;;;31.88;16.13;;;;;;;11.29;100.00;100132.16;5096178;28;20048;-93
2022/11/11 06:06:56;;;;;;;32.75;17.17;;;;;;;11.43;100.00;100139.19;5093368;28;20536;-93
2022/11/11 06:09:22;;;;;;;29.10;16.10;;;;;;;11.43;100.00;100120.53;5095051;28;20040;-96
2022/11/11 06:11:48;;;;;;;31.02;16.70;;;;;;;11.35;100.00;100115.25;5096541;28;20072;-94
2022/11/11 06:14:15;;;;;;;33.47;17.50;;;;;;;11.36;100.00;100117.00;5096390;28;20097;-96
2022/11/11 06:16:41;;;;;;;32.13;16.85;;;;;;;11.49;100.00;100152.41;5097281;28;20111;-93
2022/11/11 06:19:07;;;;;;;32.33;17.08;;;;;;;11.34;100.00;100123.25;5097629;28;20044;-96
2022/11/11 06:21:55;;;;;;;31.38;17.10;;;;;;;11.47;100.00;100138.22;5093127;28;20048;-94
2022/11/11 06:24:19;;;;;;;30.02;15.43;;;;;;;11.46;100.00;100126.69;5094059;28;20098;-96
2022/11/11 06:26:44;;;;;;;33.05;16.83;;;;;;;11.58;100.00;100140.78;5097690;28;20412;-93
2022/11/11 06:29:11;;;;;;;29.77;15.68;;;;;;;11.57;100.00;100128.38;5095596;28;20041;-96
2022/11/11 06:31:38;;;;;;;28.00;14.90;;;;;;;11.69;100.00;100129.16;5098002;28;20049;-95
2022/11/11 06:34:04;;;;;;;29.33;15.05;;;;;;;11.89;100.00;100147.63;5100741;28;20104;-94
2022/11/11 06:36:30;;;;;;;27.83;15.45;;;;;;;11.95;100.00;100154.69;5103796;28;20068;-95
2022/11/11 06:38:56;;;;;;;28.92;14.68;;;;;;;12.07;100.00;100164.34;5098984;28;20040;-95
2022/11/11 06:41:24;;;;;;;25.77;14.13;;;;;;;12.00;100.00;100144.84;5080376;28;20043;-95
2022/11/11 06:43:50;;;;;;;24.77;15.17;;;;;;;12.06;100.00;100155.47;5079682;28;20047;-95
2022/11/11 06:46:21;;;;;;;26.10;14.52;;;;;;;12.05;100.00;100160.78;5082285;28;20045;-95
2022/11/11 06:48:49;;;;;;;27.55;13.18;;;;;;;12.11;100.00;100158.94;5079195;28;20044;-94
2022/11/11 06:51:15;;;;;;;24.92;14.38;;;;;;;11.99;100.00;100150.19;5079773;28;20041;-94
2022/11/11 06:53:41;;;;;;;26.48;14.57;;;;;;;12.05;100.00;100175.00;5080195;28;20131;-95
2022/11/11 06:56:11;;;;;;;23.63;13.75;;;;;;;12.06;100.00;100170.59;5080254;28;20462;-96
2022/11/11 06:58:37;;;;;;;25.73;13.77;;;;;;;12.14;100.00;100179.34;5079000;28;20554;-93
2022/11/11 07:01:04;;;;;;;26.20;14.15;;;;;;;12.09;100.00;100171.41;5080712;28;20044;-95
2022/11/11 07:03:31;;;;;;;26.38;15.00;;;;;;;12.10;100.00;100173.19;5080928;28;20083;-94
2022/11/11 07:05:59;;;;;;;24.90;12.57;;;;;;;12.23;100.00;100178.38;5079558;28;20502;-94
2022/11/11 07:08:26;;;;;;;23.58;12.57;;;;;;;12.29;100.00;100189.84;5079549;28;20040;-96
2022/11/11 07:10:52;;;;;;;21.88;12.35;;;;;;;12.35;100.00;100188.03;5085297;28;20128;-95
2022/11/11 07:13:18;;;;;;;19.65;11.75;;;;;;;12.50;100.00;100196.72;5089351;28;20064;-95
2022/11/11 07:15:44;;;;;;;20.13;12.27;;;;;;;12.40;100.00;100181.72;5087812;28;20040;-95
2022/11/11 07:18:10;;;;;;;23.58;12.75;;;;;;;12.45;100.00;100192.38;5081970;28;20115;-93
2022/11/11 07:20:37;;;;;;;22.08;12.82;;;;;;;12.45;100.00;100187.03;5087397;28;20104;-95
2022/11/11 07:23:06;;;;;;;22.63;12.85;;;;;;;12.67;100.00;100233.00;5087371;28;20063;-96
2022/11/11 07:25:32;;;;;;;22.27;11.60;;;;;;;12.73;100.00;100224.94;5092562;28;20074;-96
2022/11/11 07:27:59;;;;;;;23.33;12.30;;;;;;;12.77;100.00;100209.75;5090819;28;20379;-95
2022/11/11 07:30:25;;;;;;;19.52;10.95;;;;;;;12.76;100.00;100190.19;5087028;28;20453;-95
2022/11/11 07:32:55;;;;;;;18.63;11.43;;;;;;;12.87;99.40;100198.94;5088069;28;20093;-96
2022/11/11 07:35:25;;;;;;;19.70;11.15;;;;;;;13.00;97.67;100204.09;5087948;28;20037;-96
2022/11/11 07:43:14;;;;;;;17.88;10.75;;;;;;;13.27;95.36;100201.03;5044655;28;20045;-95
2022/11/11 07:45:40;;;;;;;15.07;9.00;;;;;;;13.48;93.20;100188.28;5055024;28;20056;-94
2022/11/11 07:48:08;;;;;;;12.88;8.70;;;;;;;13.68;92.34;100198.63;5048260;28;20049;-96
2022/11/11 07:50:34;;;;;;;14.15;8.57;;;;;;;13.77;90.78;100211.88;5044949;28;20080;-96
2022/11/11 07:53:00;;;;;;;13.07;8.55;;;;;;;13.82;91.31;100217.13;5044401;28;20058;-94
2022/11/11 07:55:26;;;;;;;15.23;8.07;;;;;;;13.88;90.07;100187.56;5047052;28;20063;-94
2022/11/11 07:57:52;;;;;;;13.15;8.20;;;;;;;13.89;90.44;100190.22;5045421;28;20045;-96
2022/11/11 08:00:20;;;;;;;14.15;8.45;;;;;;;14.04;89.38;100207.81;5046408;28;20057;-96
2022/11/11 08:02:46;;;;;;;15.20;7.70;;;;;;;14.14;89.07;100203.19;5045724;28;20048;-96
2022/11/11 08:05:14;;;;;;;10.70;6.90;;;;;;;14.46;87.79;100228.41;5045053;28;20052;-96
2022/11/11 08:07:41;;;;;;;15.25;7.70;;;;;;;14.36;87.89;100217.03;5044023;28;20049;-96
2022/11/11 08:10:08;;;;;;;10.48;6.53;;;;;;;14.48;86.03;100213.22;5044634;28;20056;-95
2022/11/11 08:25:57;;;;;;;9.65;5.60;;;;;;;14.79;84.20;100240.31;5125055;27;20374;-96
2022/11/11 08:28:23;;;;;;;8.95;5.18;;;;;;;14.89;81.79;100216.88;5124487;28;20044;-95
2022/11/11 08:41:15;;;;;;;6.00;4.47;;;;;;;15.36;79.15;100245.28;5047446;28;20045;-95
2022/11/11 08:43:41;;;;;;;6.88;4.78;;;;;;;15.43;78.48;100242.47;5042220;28;20046;-95
2022/11/11 08:46:08;;;;;;;6.15;4.30;;;;;;;15.47;77.28;100222.72;5041107;28;20050;-94
2022/11/11 08:48:34;;;;;;;6.80;4.25;;;;;;;15.38;78.12;100222.00;5042826;28;20073;-96
2022/11/11 08:51:00;;;;;;;6.53;4.50;;;;;;;15.40;76.86;100217.50;5020568;28;20049;-94
2022/11/11 08:53:26;;;;;;;7.97;4.38;;;;;;;15.63;77.24;100232.13;5021620;28;20047;-95
2022/11/11 08:55:56;;;;;;;6.32;4.20;;;;;;;15.88;76.18;100250.34;5025292;28;20102;-96
2022/11/11 08:58:24;;;;;;;6.78;4.38;;;;;;;15.63;77.55;100245.53;5023547;28;20050;-96
2022/11/11 09:00:50;;;;;;;8.50;4.18;;;;;;;15.76;76.70;100235.44;5025643;28;20056;-94
2022/11/11 09:03:19;;;;;;;7.75;4.05;;;;;;;15.68;76.08;100227.56;5023519;28;20042;-92
2022/11/11 09:05:46;;;;;;;5.63;3.72;;;;;;;15.97;71.96;100255.47;5024667;28;20084;-93
2022/11/11 09:08:13;;;;;;;7.32;4.10;;;;;;;15.76;71.51;100219.34;5026474;28;20046;-95
2022/11/11 09:10:43;;;;;;;6.85;3.88;;;;;;;15.76;71.47;100230.94;5029044;28;20030;-95
2022/11/11 09:13:09;;;;;;;5.03;3.28;;;;;;;15.78;69.05;100233.59;5025093;28;20056;-93
2022/11/11 09:15:44;;;;;;;5.55;3.65;;;;;;;15.91;70.21;100256.50;5008183;28;20058;-96
2022/11/11 09:18:14;;;;;;;5.43;3.25;;;;;;;15.88;70.76;100234.25;5008243;28;20042;-95
2022/11/11 09:20:46;;;;;;;5.68;3.35;;;;;;;15.89;69.40;100238.69;5001869;28;20047;-96
2022/11/11 09:23:13;;;;;;;5.75;3.33;;;;;;;15.88;68.08;100243.19;5005199;28;20098;-95
2022/11/11 09:29:06;;;;;;;5.50;3.13;;;;;;;16.07;67.83;100243.59;4995515;28;20095;-96
2022/11/11 09:31:46;;;;;;;5.77;3.53;;;;;;;16.06;67.40;100232.91;4989376;28;20047;-95
2022/11/11 10:09:01;;;;;;;4.88;3.15;;;;;;;16.72;64.52;100248.09;4986340;28;20047;-95
2022/11/11 10:11:46;;;;;;;5.00;3.10;;;;;;;16.43;64.96;100243.53;4983625;28;20061;-95
2022/11/11 10:14:13;;;;;;;5.25;3.17;;;;;;;16.40;64.71;100232.88;4987683;28;20050;-96
2022/11/11 10:16:54;;;;;;;5.18;3.55;;;;;;;16.56;63.71;100239.56;4988141;28;20137;-96
2022/11/11 10:27:01;;;;;;;5.03;3.15;;;;;;;16.53;65.89;100250.41;4913273;29;20049;-96
2022/11/11 10:30:14;;;;;;;4.45;3.17;;;;;;;16.24;65.75;100216.28;4895107;29;20041;-95
2022/11/11 10:32:56;;;;;;;4.93;3.33;;;;;;;16.45;65.14;100249.72;4890757;29;20068;-94
2022/11/11 10:35:28;;;;;;;5.25;3.40;;;;;;;16.30;64.80;100242.09;4892068;29;20069;-93
2022/11/11 10:38:16;;;;;;;4.40;2.90;;;;;;;16.25;65.10;100217.19;4889759;29;20528;-96
2022/11/11 10:40:49;;;;;;;6.03;2.72;;;;;;;16.31;66.05;100225.06;4892818;29;20049;-95
2022/11/11 10:43:21;;;;;;;6.88;3.03;;;;;;;16.10;64.85;100221.16;4888977;29;20061;-94
2022/11/11 10:45:58;;;;;;;4.95;2.58;;;;;;;16.21;65.47;100237.84;4885990;29;20053;-96
2022/11/11 10:48:35;;;;;;;5.68;2.55;;;;;;;16.20;65.66;100223.56;4892311;29;20049;-96
2022/11/11 10:51:05;;;;;;;3.95;2.95;;;;;;;16.08;63.76;100205.09;4888112;29;20052;-95
2022/11/11 10:53:37;;;;;;;4.63;2.80;;;;;;;16.33;63.57;100247.38;4901960;29;20052;-95
2022/11/11 10:59:42;;;;;;;4.53;2.85;;;;;;;16.31;63.60;100230.41;4932039;29;20095;-96
2022/11/11 11:02:33;;;;;;;5.00;3.07;;;;;;;16.40;63.50;100238.25;4970819;29;20083;-95
2022/11/11 11:05:05;;;;;;;4.00;2.70;;;;;;;16.15;63.49;100212.03;4966873;28;20050;-96
2022/11/11 11:07:38;;;;;;;4.05;2.70;;;;;;;16.30;64.36;100261.75;4981328;28;20085;-94
2022/11/11 11:10:07;;;;;;;4.47;2.70;;;;;;;16.17;63.58;100212.03;4985151;28;20515;-95
2022/11/11 11:12:41;;;;;;;5.60;2.88;;;;;;;16.23;63.00;100222.59;4985434;28;20098;-94
2022/11/11 11:15:16;;;;;;;4.40;2.72;;;;;;;16.34;62.42;100241.09;4986378;28;20038;-96
2022/11/11 11:17:52;;;;;;;4.63;2.88;;;;;;;16.22;63.48;100235.13;4984755;28;20061;-95
2022/11/11 11:20:26;;;;;;;3.80;2.83;;;;;;;16.33;62.25;100223.22;4988282;28;20042;-95
2022/11/11 11:22:59;;;;;;;4.10;2.78;;;;;;;16.21;64.19;100201.16;4991656;28;20389;-95
2022/11/11 11:25:29;;;;;;;4.82;2.80;;;;;;;16.29;63.51;100206.31;4990838;28;20049;-96
2022/11/11 11:28:17;;;;;;;4.20;2.95;;;;;;;16.32;63.85;100199.97;4992714;28;20034;-95
2022/11/11 11:30:58;;;;;;;5.00;2.83;;;;;;;16.38;63.42;100205.19;4988261;28;20498;-94
2022/11/11 11:33:25;;;;;;;5.68;2.88;;;;;;;16.49;62.12;100192.34;4988430;28;20043;-94
2022/11/11 11:36:15;;;;;;;3.85;2.67;;;;;;;16.63;62.58;100230.44;4989963;28;20047;-96
2022/11/11 11:38:46;;;;;;;3.90;2.55;;;;;;;16.45;62.27;100182.59;4994590;28;20070;-96
2022/11/11 11:41:50;;;;;;;9.13;3.13;;;;;;;16.49;63.09;100175.34;4996603;28;20047;-96
2022/11/11 11:44:29;;;;;;;5.32;2.83;;;;;;;16.51;61.95;100171.69;4989402;28;20054;-95
2022/11/11 11:47:15;;;;;;;3.65;2.30;;;;;;;16.63;62.77;100168.66;4987627;28;20074;-96
2022/11/11 11:50:05;;;;;;;4.25;3.00;;;;;;;16.86;60.10;100182.34;4990712;28;20078;-95
2022/11/11 11:52:42;;;;;;;3.08;2.30;;;;;;;16.57;60.64;100174.22;4986385;28;20106;-95
2022/11/11 11:55:15;;;;;;;5.18;2.67;;;;;;;16.62;60.48;100190.19;4988223;28;20027;-94
2022/11/11 11:57:52;;;;;;;4.03;2.58;;;;;;;16.46;60.71;100181.69;4980397;28;20392;-93
2022/11/11 12:00:21;;;;;;;6.13;2.65;;;;;;;16.54;60.72;100181.47;4985696;28;20105;-95
2022/11/11 12:03:13;;;;;;;5.15;2.42;;;;;;;16.49;60.13;100156.56;4985941;28;20046;-95
2022/11/11 12:05:44;;;;;;;4.20;2.30;;;;;;;16.63;59.59;100170.44;4985297;28;20039;-94
2022/11/11 12:08:29;;;;;;;6.75;2.50;;;;;;;16.66;60.39;100172.19;4979473;28;20525;-95
2022/11/11 12:11:01;;;;;;;3.80;2.30;;;;;;;16.56;60.44;100145.56;4982504;28;20043;-96
2022/11/11 12:13:40;;;;;;;4.45;2.55;;;;;;;16.69;59.93;100155.97;4982492;28;20055;-94
2022/11/11 12:16:14;;;;;;;;;;;;;;;16.77;60.90;100173.59;4985933;28;20042;-95
2022/11/11 12:18:57;;;;;;;3.95;2.92;;;;;;;16.43;60.03;100141.50;4981315;28;19945;-95
2022/11/11 12:21:32;;;;;;;5.20;2.80;;;;;;;16.52;60.07;100133.16;4985850;28;20047;-96
2022/11/11 12:24:07;;;;;;;3.83;2.50;;;;;;;16.58;61.22;100126.75;4987817;28;20079;-96
2022/11/11 12:26:38;;;;;;;4.32;2.50;;;;;;;16.68;60.35;100141.66;4978662;28;20118;-95
2022/11/11 12:29:29;;;;;;;4.70;2.55;;;;;;;16.77;60.40;100138.69;4983184;28;20038;-96
2022/11/11 12:32:14;;;;;;;4.95;2.80;;;;;;;16.69;60.22;100113.84;4985320;28;20143;-96
2022/11/11 12:35:01;;;;;;;5.68;3.08;;;;;;;16.81;59.42;100120.72;4982526;28;20035;-96
2022/11/11 12:37:42;;;;;;;4.57;2.72;;;;;;;16.72;59.05;100111.09;4984531;28;20057;-93
2022/11/11 12:40:19;;;;;;;4.55;2.80;;;;;;;16.82;60.05;100111.72;4978683;28;20058;-95
2022/11/11 12:43:01;;;;;;;3.90;2.85;;;;;;;16.77;58.49;100116.31;4978636;28;20082;-95
2022/11/11 12:45:35;;;;;;;4.70;2.72;;;;;;;16.81;58.38;100116.22;4977879;28;20047;-95
2022/11/11 12:48:09;;;;;;;4.82;2.55;;;;;;;16.85;58.21;100130.44;4978501;28;20085;-96
2022/11/11 12:50:40;;;;;;;4.00;2.42;;;;;;;16.92;57.45;100140.06;4985224;28;20058;-95
2022/11/11 12:53:23;;;;;;;4.75;2.63;;;;;;;17.06;58.07;100136.91;4980105;28;20051;-95
2022/11/11 12:56:00;;;;;;;4.55;2.40;;;;;;;16.95;56.80;100102.31;4985372;28;20089;-96
2022/11/11 12:58:37;;;;;;;4.10;2.50;;;;;;;16.99;57.20;100104.00;4980872;28;20055;-94
2022/11/11 13:01:16;;;;;;;3.67;2.50;;;;;;;17.07;57.99;100121.66;4982217;28;20086;-96
2022/11/11 13:03:58;;;;;;;3.75;2.58;;;;;;;16.80;58.28;100089.38;4987266;28;20518;-94
2022/11/11 13:06:43;;;;;;;4.13;2.60;;;;;;;17.11;58.89;100134.09;4985105;28;20115;-96
2022/11/11 13:09:41;;;;;;;4.72;2.50;;;;;;;17.01;57.80;100112.00;4982517;28;20497;-96
2022/11/11 13:12:14;;;;;;;5.07;2.70;;;;;;;17.01;58.70;100118.25;4984606;28;20125;-96
2022/11/11 13:14:57;;;;;;;4.43;2.85;;;;;;;16.93;59.17;100108.69;4985761;28;20046;-96
2022/11/11 13:17:26;;;;;;;6.03;3.10;;;;;;;16.98;58.64;100125.53;4987336;28;20082;-95
2022/11/11 13:19:58;;;;;;;4.00;2.92;;;;;;;16.73;58.66;100118.22;4981940;28;20039;-96
2022/11/11 13:22:26;;;;;;;3.35;2.65;;;;;;;16.72;59.75;100112.88;4981584;28;20528;-94
2022/11/11 13:24:54;;;;;;;4.45;2.83;;;;;;;16.62;60.08;100091.69;4981216;28;20138;-96
2022/11/11 13:27:30;;;;;;;4.95;3.10;;;;;;;16.50;59.59;100083.13;4981276;28;20584;-95
2022/11/11 13:30:28;;;;;;;4.43;2.83;;;;;;;16.68;60.66;100105.88;4982556;28;20424;-95
2022/11/11 13:33:01;;;;;;;4.90;3.00;;;;;;;16.55;60.82;100092.81;4962544;28;20185;-95
2022/11/11 13:35:32;;;;;;;6.15;3.55;;;;;;;16.53;60.67;100093.78;4964824;29;20090;-94
2022/11/11 13:37:59;;;;;;;4.03;2.83;;;;;;;16.41;61.09;100092.31;4967873;28;20043;-95
2022/11/11 13:40:38;;;;;;;4.70;2.90;;;;;;;16.50;61.16;100108.16;4966266;28;20059;-95
2022/11/11 13:43:13;;;;;;;4.03;2.88;;;;;;;16.32;60.37;100081.88;4970329;28;20051;-96
2022/11/11 13:45:42;;;;;;;5.07;3.58;;;;;;;16.36;60.87;100088.91;4967115;28;20049;-96
2022/11/11 13:48:19;;;;;;;3.88;2.90;;;;;;;16.45;61.27;100099.38;4983602;28;20050;-95
2022/11/11 13:50:45;;;;;;;5.43;2.88;;;;;;;16.42;61.43;100092.28;4979808;28;20476;-95
2022/11/11 13:53:23;;;;;;;6.30;2.90;;;;;;;16.44;61.01;100073.47;4981148;28;20101;-96
2022/11/11 13:55:53;;;;;;;4.97;3.15;;;;;;;16.44;60.28;100084.19;4983875;28;20485;-95
2022/11/11 13:58:25;;;;;;;4.05;2.80;;;;;;;16.31;60.45;100080.09;4985030;28;20497;-95
2022/11/11 14:00:59;;;;;;;5.18;2.97;;;;;;;16.42;61.21;100108.41;4983952;28;20057;-95
2022/11/11 14:03:32;;;;;;;4.95;3.20;;;;;;;16.21;60.74;100069.63;4980609;28;20374;-96
2022/11/11 14:06:47;;;;;;;4.82;2.92;;;;;;;16.26;61.45;100092.78;4981814;28;20402;-95